createdAt,value
2023-12-16T07:15:17.720Z,3.80
2023-12-16T07:20:20.511Z,3.15
2023-12-16T07:25:23.136Z,1.92
2023-12-16T07:30:25.864Z,2.15
2023-12-16T07:35:28.543Z,1.90
2023-12-16T07:40:33.186Z,2.95
2023-12-16T07:45:37.415Z,2.00
2023-12-16T07:50:40.047Z,1.90
2023-12-16T07:55:42.670Z,1.80
2023-12-16T08:00:45.368Z,2.00
2023-12-16T08:05:48.045Z,2.00
2023-12-16T08:10:54.250Z,1.58
2023-12-16T08:15:56.979Z,1.75
2023-12-16T08:20:59.659Z,2.33
2023-12-16T08:26:02.439Z,1.45
2023-12-16T08:31:08.234Z,1.73
2023-12-16T08:36:10.973Z,1.65
2023-12-16T08:41:13.741Z,1.73
2023-12-16T08:46:16.689Z,2.30
2023-12-16T08:51:25.363Z,1.63
2023-12-16T08:56:27.968Z,1.80
2023-12-16T09:01:31.313Z,1.70
2023-12-16T09:06:38.550Z,1.75
2023-12-16T09:11:47.365Z,1.15
2023-12-16T09:16:49.934Z,1.25
2023-12-16T09:21:52.638Z,1.58
2023-12-16T09:26:55.282Z,1.52
2023-12-16T09:31:57.946Z,1.05
2023-12-16T09:37:00.599Z,1.20
2023-12-16T09:42:04.374Z,1.27
2023-12-16T09:47:10.108Z,1.75
2023-12-16T09:52:14.038Z,1.70
2023-12-16T09:57:19.750Z,1.20
2023-12-16T10:02:29.587Z,1.40
2023-12-16T10:07:32.447Z,1.30
2023-12-16T10:12:35.360Z,1.33
2023-12-16T10:17:38.733Z,1.13
2023-12-16T10:22:44.279Z,0.80
2023-12-16T10:27:48.852Z,1.20
2023-12-16T10:32:51.564Z,1.10
2023-12-16T10:37:56.135Z,1.15
2023-12-16T10:42:59.228Z,0.90
2023-12-16T10:48:05.251Z,1.05
2023-12-16T10:53:15.805Z,1.10
2023-12-16T10:58:29.826Z,1.13
2023-12-16T11:03:40.148Z,0.60
2023-12-16T11:13:45.826Z,1.23
2023-12-16T11:18:50.643Z,0.77
2023-12-16T11:23:54.909Z,1.20
2023-12-16T11:28:57.625Z,1.10
2023-12-16T11:34:00.768Z,0.75
2023-12-16T11:39:04.486Z,0.70
2023-12-16T11:44:08.795Z,0.90
2023-12-16T11:49:14.565Z,0.45
2023-12-16T11:54:17.329Z,0.43
2023-12-16T11:59:20.033Z,0.90
2023-12-16T12:04:22.730Z,0.63
2023-12-16T12:09:25.471Z,0.60
2023-12-16T12:14:28.595Z,0.80
2023-12-16T12:19:31.308Z,0.55
2023-12-16T12:24:34.138Z,0.70
2023-12-16T12:29:56.381Z,1.05
2023-12-16T12:35:07.558Z,0.73
2023-12-16T12:40:14.496Z,0.80
2023-12-16T12:45:34.237Z,0.60
2023-12-16T12:50:37.950Z,0.90
2023-12-16T12:55:44.433Z,1.30
2023-12-16T13:00:47.547Z,0.85
2023-12-16T13:05:50.974Z,0.70
2023-12-16T13:10:53.973Z,0.80
2023-12-16T13:15:58.342Z,0.63
2023-12-16T13:21:01.808Z,0.90
2023-12-16T13:26:11.929Z,0.47
2023-12-16T13:31:14.721Z,0.70
2023-12-16T13:36:33.705Z,0.70
2023-12-16T13:41:40.618Z,0.85
2023-12-16T13:46:44.310Z,1.10
2023-12-16T13:51:46.887Z,1.13
2023-12-16T13:56:49.699Z,0.80
2023-12-16T14:01:52.477Z,0.80
2023-12-16T14:06:55.150Z,1.02
2023-12-16T14:11:57.776Z,0.73
2023-12-16T14:17:00.635Z,0.70
2023-12-16T14:22:03.385Z,0.50
2023-12-16T14:27:06.099Z,0.68
2023-12-16T14:32:08.839Z,0.70
2023-12-16T14:37:11.435Z,0.68
2023-12-16T14:42:14.297Z,0.70
2023-12-16T14:47:16.922Z,0.80
2023-12-16T14:52:19.533Z,0.77
2023-12-16T14:57:22.121Z,0.77
2023-12-16T15:02:25.505Z,0.80
2023-12-16T15:07:28.237Z,0.68
2023-12-16T15:12:30.966Z,0.60
2023-12-16T15:17:34.990Z,0.52
2023-12-16T15:22:38.550Z,0.50
2023-12-16T15:27:42.133Z,0.52
2023-12-16T15:32:45.033Z,0.70
2023-12-16T15:37:47.681Z,0.70
2023-12-16T15:42:50.275Z,0.65
2023-12-16T15:47:53.009Z,0.80
2023-12-16T15:52:55.713Z,0.55
2023-12-16T15:57:58.476Z,0.93
2023-12-16T16:03:02.205Z,0.50
2023-12-16T16:08:05.789Z,1.65
2023-12-16T16:13:13.471Z,1.13
2023-12-16T16:18:17.413Z,0.63
2023-12-16T16:23:20.091Z,0.77
2023-12-16T16:28:22.863Z,0.75
2023-12-16T16:33:25.701Z,1.17
2023-12-16T16:38:29.907Z,0.75
2023-12-16T16:43:32.569Z,0.73
2023-12-16T16:48:35.326Z,0.63
2023-12-16T16:53:38.137Z,0.60
2023-12-16T16:58:43.432Z,0.70
2023-12-16T17:03:46.133Z,0.73
2023-12-16T17:08:48.795Z,0.82
2023-12-16T17:13:51.430Z,0.80
2023-12-16T17:18:54.203Z,0.63
2023-12-16T17:23:57.845Z,0.65
2023-12-16T17:29:00.566Z,0.75
2023-12-16T17:34:03.327Z,0.63
2023-12-16T17:39:06.970Z,0.70
2023-12-16T17:44:09.935Z,0.80
2023-12-16T17:49:12.785Z,0.70
2023-12-16T17:54:15.444Z,0.70
2023-12-16T17:59:18.129Z,0.70
2023-12-16T18:04:21.039Z,0.70
2023-12-16T18:09:23.774Z,0.80
2023-12-16T18:14:26.815Z,1.23
2023-12-16T18:19:30.919Z,0.90
2023-12-16T18:24:33.647Z,0.80
2023-12-16T18:29:39.349Z,0.80
2023-12-16T18:34:42.575Z,0.88
2023-12-16T18:39:45.700Z,0.85
2023-12-16T18:44:48.600Z,0.82
2023-12-16T18:49:51.360Z,0.55
2023-12-16T18:54:54.033Z,0.70
2023-12-16T18:59:56.641Z,1.13
2023-12-16T19:04:59.458Z,1.00
2023-12-16T19:10:05.954Z,0.70
2023-12-16T19:15:08.911Z,0.73
2023-12-16T19:20:12.023Z,0.90
2023-12-16T19:25:14.963Z,1.05
2023-12-16T19:30:17.817Z,0.90
2023-12-16T19:35:20.653Z,0.70
2023-12-16T19:40:23.341Z,1.05
2023-12-16T19:45:26.123Z,1.33
2023-12-16T19:50:28.848Z,1.00
2023-12-16T19:55:31.578Z,1.20
2023-12-16T20:00:35.516Z,1.05
2023-12-16T20:05:38.287Z,1.58
2023-12-16T20:10:43.310Z,1.02
2023-12-16T20:15:46.025Z,1.23
2023-12-16T20:20:48.732Z,0.98
2023-12-16T20:25:52.493Z,0.95
2023-12-16T20:30:55.356Z,1.08
2023-12-16T20:35:57.978Z,1.00
2023-12-16T20:41:00.621Z,1.23
2023-12-16T20:46:04.073Z,1.20
2023-12-16T20:51:06.976Z,1.08
2023-12-16T20:56:10.438Z,1.27
2023-12-16T21:01:13.129Z,1.30
2023-12-16T21:06:16.097Z,1.40
2023-12-16T21:11:18.818Z,1.15
2023-12-16T21:16:22.850Z,1.27
2023-12-16T21:21:25.515Z,1.65
2023-12-16T21:26:28.376Z,1.50
2023-12-16T21:31:31.062Z,1.67
2023-12-16T21:36:33.738Z,1.48
2023-12-16T21:41:36.424Z,1.48
2023-12-16T21:46:39.096Z,1.42
2023-12-16T21:51:42.019Z,1.70
2023-12-16T21:56:44.891Z,1.75
2023-12-16T22:01:47.623Z,1.42
2023-12-16T22:06:50.263Z,1.63
2023-12-16T22:11:52.923Z,1.67
2023-12-16T22:16:55.633Z,1.38
2023-12-16T22:21:59.494Z,1.63
2023-12-16T22:27:02.191Z,1.75
2023-12-16T22:32:05.252Z,1.70
2023-12-16T22:37:07.914Z,1.40
2023-12-16T22:42:10.824Z,1.70
2023-12-16T22:47:13.543Z,1.73
2023-12-16T22:52:16.156Z,1.90
